createdAt,value
2024-04-11T00:00:49.382Z,71.49
2024-04-11T00:01:57.075Z,70.97
2024-04-11T00:02:49.424Z,70.41
2024-04-11T00:03:49.659Z,69.92
2024-04-11T00:04:49.312Z,69.67
2024-04-11T00:05:49.352Z,69.56
2024-04-11T00:06:49.270Z,69.55
2024-04-11T00:07:49.287Z,69.79
2024-04-11T00:08:49.306Z,70.15
2024-04-11T00:09:49.237Z,70.18
2024-04-11T00:10:49.239Z,70.08
2024-04-11T00:11:49.374Z,70.06
2024-04-11T00:12:49.250Z,70.21
2024-04-11T00:13:49.165Z,70.29
2024-04-11T00:14:49.252Z,70.40
2024-04-11T00:15:49.209Z,70.60
2024-04-11T00:16:49.138Z,70.81
2024-04-11T00:17:49.334Z,70.68
2024-04-11T00:18:49.335Z,70.54
2024-04-11T00:19:49.137Z,70.49
2024-04-11T00:20:49.151Z,70.74
2024-04-11T00:21:49.114Z,70.64
2024-04-11T00:22:49.139Z,70.67
2024-04-11T00:23:49.131Z,70.58
2024-04-11T00:24:49.136Z,70.52
2024-04-11T00:25:49.044Z,70.65
2024-04-11T00:26:49.092Z,70.83
2024-04-11T00:27:48.990Z,71.01
2024-04-11T00:28:48.977Z,71.21
2024-04-11T00:29:49.005Z,71.37
2024-04-11T00:30:48.950Z,71.53
2024-04-11T00:31:48.928Z,71.62
2024-04-11T00:32:49.084Z,71.69
2024-04-11T00:33:49.047Z,71.73
2024-04-11T00:34:48.906Z,71.67
2024-04-11T00:35:48.905Z,71.67
2024-04-11T00:36:48.875Z,71.71
2024-04-11T00:37:48.873Z,71.69
2024-04-11T00:38:48.858Z,71.62
2024-04-11T00:39:48.832Z,71.61
2024-04-11T00:40:48.836Z,71.54
2024-04-11T00:41:48.907Z,71.50
2024-04-11T00:42:48.836Z,71.40
2024-04-11T00:43:48.890Z,71.34
2024-04-11T00:44:48.818Z,71.20
2024-04-11T00:45:48.799Z,71.09
2024-04-11T00:46:48.815Z,70.96
2024-04-11T00:47:51.185Z,70.81
2024-04-11T00:48:48.920Z,70.75
2024-04-11T00:49:48.728Z,70.74
2024-04-11T00:50:48.794Z,70.73
2024-04-11T00:51:48.683Z,70.75
2024-04-11T00:52:48.682Z,70.72
2024-04-11T00:53:48.673Z,70.58
2024-04-11T00:54:48.646Z,70.47
2024-04-11T00:55:48.619Z,70.39
2024-04-11T00:56:48.697Z,70.34
2024-04-11T00:57:48.703Z,70.32
2024-04-11T00:58:48.590Z,70.38
2024-04-11T00:59:48.645Z,70.37
2024-04-11T01:00:48.587Z,70.51
2024-04-11T01:01:48.598Z,71.08
2024-04-11T01:02:48.628Z,71.62
2024-04-11T01:03:48.718Z,71.91
2024-04-11T01:04:48.660Z,72.09
2024-04-11T01:05:48.603Z,72.40
2024-04-11T01:06:48.501Z,72.57
2024-04-11T01:07:48.467Z,72.73
2024-04-11T01:08:48.500Z,72.86
2024-04-11T01:09:48.481Z,73.11
2024-04-11T01:10:48.501Z,73.41
2024-04-11T01:11:48.444Z,73.78
2024-04-11T01:12:48.414Z,74.15
2024-04-11T01:13:48.382Z,74.30
2024-04-11T01:14:48.518Z,74.28
2024-04-11T01:15:48.380Z,74.28
2024-04-11T01:16:48.416Z,74.00
2024-04-11T01:17:48.600Z,73.91
2024-04-11T01:18:48.399Z,73.88
2024-04-11T01:19:48.320Z,73.42
2024-04-11T01:20:48.389Z,73.24
2024-04-11T01:21:48.294Z,73.26
2024-04-11T01:22:48.284Z,73.08
2024-04-11T01:23:48.287Z,72.92
2024-04-11T01:24:48.250Z,72.87
2024-04-11T01:25:48.254Z,72.94
2024-04-11T01:26:48.277Z,73.23
2024-04-11T01:27:48.263Z,73.43
2024-04-11T01:28:48.192Z,73.45
2024-04-11T01:29:48.215Z,73.77
2024-04-11T01:30:48.201Z,74.24
2024-04-11T01:31:48.158Z,74.61
2024-04-11T01:32:48.394Z,74.79
2024-04-11T01:33:48.349Z,74.85
2024-04-11T01:34:48.223Z,74.79
2024-04-11T01:35:48.135Z,74.65
2024-04-11T01:36:48.101Z,74.27
2024-04-11T01:37:48.105Z,73.98
2024-04-11T01:38:48.130Z,73.74
2024-04-11T01:39:48.084Z,73.57
2024-04-11T01:40:48.139Z,73.36
2024-04-11T01:41:48.111Z,73.26
2024-04-11T01:42:48.014Z,73.28
2024-04-11T01:43:48.060Z,73.33
2024-04-11T01:44:48.115Z,73.29
2024-04-11T01:45:47.967Z,73.37
2024-04-11T01:46:47.952Z,73.56
2024-04-11T01:47:48.015Z,73.69
2024-04-11T01:48:48.044Z,73.87
2024-04-11T01:49:47.907Z,73.98
2024-04-11T01:50:48.261Z,74.14
2024-04-11T01:51:47.896Z,74.41
2024-04-11T01:52:47.871Z,74.71
2024-04-11T01:53:47.924Z,74.55
2024-04-11T01:54:47.869Z,74.37
2024-04-11T01:55:47.849Z,74.50
2024-04-11T01:56:47.884Z,74.54
2024-04-11T01:57:47.807Z,74.41
2024-04-11T01:58:47.827Z,74.37
2024-04-11T01:59:47.961Z,74.42
2024-04-11T02:00:47.812Z,74.20
2024-04-11T02:01:47.767Z,73.99
2024-04-11T02:02:47.792Z,73.77
2024-04-11T02:03:47.917Z,73.66
2024-04-11T02:04:47.737Z,73.68
2024-04-11T02:05:47.826Z,73.94
2024-04-11T02:06:47.700Z,73.98
2024-04-11T02:07:47.688Z,74.08
2024-04-11T02:08:47.676Z,74.04
2024-04-11T02:09:47.658Z,73.82
2024-04-11T02:10:47.638Z,73.65
2024-04-11T02:11:47.733Z,73.71
2024-04-11T02:12:47.613Z,73.82
2024-04-11T02:13:47.595Z,73.74
2024-04-11T02:14:47.648Z,73.65
2024-04-11T02:15:47.593Z,73.58
2024-04-11T02:16:47.597Z,73.53
2024-04-11T02:17:47.667Z,73.59
2024-04-11T02:18:47.722Z,73.72
2024-04-11T02:19:47.539Z,73.71
2024-04-11T02:20:47.563Z,73.81
2024-04-11T02:21:47.512Z,73.83
2024-04-11T02:22:47.489Z,74.07
2024-04-11T02:23:47.549Z,73.97
2024-04-11T02:24:47.465Z,73.71
2024-04-11T02:25:47.443Z,73.74
2024-04-11T02:26:47.556Z,73.60
2024-04-11T02:27:47.875Z,73.59
2024-04-11T02:28:47.450Z,73.64
2024-04-11T02:29:47.419Z,73.13
2024-04-11T02:30:47.412Z,72.50
2024-04-11T02:31:47.405Z,72.26
2024-04-11T02:32:47.473Z,72.26
2024-04-11T02:33:47.395Z,72.35
2024-04-11T02:34:47.432Z,72.38
2024-04-11T02:35:47.390Z,72.59
2024-04-11T02:36:47.306Z,72.75
2024-04-11T02:37:47.357Z,72.85
2024-04-11T02:38:47.278Z,73.06
2024-04-11T02:39:47.304Z,73.14
2024-04-11T02:40:47.232Z,72.94
2024-04-11T02:41:54.856Z,72.76
2024-04-11T02:42:47.229Z,72.58
2024-04-11T02:43:47.239Z,72.77
2024-04-11T02:44:47.265Z,72.95
2024-04-11T02:45:47.208Z,73.09
2024-04-11T02:46:47.224Z,73.10
2024-04-11T02:47:47.280Z,73.13
2024-04-11T02:48:47.292Z,73.26
2024-04-11T02:49:47.136Z,73.52
2024-04-11T02:50:47.179Z,73.71
2024-04-11T02:51:47.105Z,73.80
2024-04-11T02:52:47.110Z,73.62
2024-04-11T02:53:47.156Z,73.58
2024-04-11T02:54:47.060Z,73.72
2024-04-11T02:55:47.053Z,73.65
2024-04-11T02:56:47.191Z,73.63
2024-04-11T02:57:47.040Z,73.72
2024-04-11T02:58:47.016Z,73.62
2024-04-11T02:59:47.041Z,73.61
2024-04-11T03:00:47.048Z,73.46
2024-04-11T03:01:48.737Z,73.76
2024-04-11T03:02:47.614Z,74.03
2024-04-11T03:03:47.264Z,73.99
2024-04-11T03:04:46.950Z,73.60
2024-04-11T03:05:47.070Z,73.17
2024-04-11T03:06:46.975Z,73.02
2024-04-11T03:07:46.896Z,73.03
2024-04-11T03:08:46.920Z,72.87
2024-04-11T03:09:46.882Z,72.66
2024-04-11T03:10:46.853Z,72.53
2024-04-11T03:11:47.006Z,72.33
2024-04-11T03:12:46.894Z,72.32
2024-04-11T03:13:46.843Z,72.40
2024-04-11T03:14:46.872Z,72.79
2024-04-11T03:15:46.792Z,73.36
2024-04-11T03:16:46.865Z,73.28
2024-04-11T03:17:46.844Z,73.22
2024-04-11T03:18:46.785Z,73.34
2024-04-11T03:19:46.741Z,73.44
2024-04-11T03:20:46.763Z,73.47
2024-04-11T03:21:46.743Z,73.30
2024-04-11T03:22:46.708Z,73.21
2024-04-11T03:23:46.756Z,73.31
2024-04-11T03:24:46.682Z,73.38
2024-04-11T03:25:46.682Z,73.42
2024-04-11T03:26:46.810Z,73.37
2024-04-11T03:27:46.681Z,73.33
2024-04-11T03:28:46.659Z,73.18
2024-04-11T03:29:46.710Z,73.19
2024-04-11T03:30:46.605Z,73.26
2024-04-11T03:31:46.605Z,73.27
2024-04-11T03:32:46.712Z,73.41
2024-04-11T03:33:46.814Z,73.57
2024-04-11T03:34:46.605Z,73.46
2024-04-11T03:35:46.599Z,73.33
2024-04-11T03:36:46.551Z,73.24
2024-04-11T03:37:46.521Z,73.13
2024-04-11T03:38:46.554Z,73.25
2024-04-11T03:39:46.522Z,73.32
2024-04-11T03:40:46.504Z,73.37
2024-04-11T03:41:46.690Z,73.41
2024-04-11T03:42:46.452Z,73.41
2024-04-11T03:43:46.463Z,73.37
2024-04-11T03:44:46.449Z,73.30
2024-04-11T03:45:46.573Z,73.27
2024-04-11T03:46:46.451Z,73.32
2024-04-11T03:47:46.575Z,73.38
2024-04-11T03:48:46.699Z,73.56
2024-04-11T03:49:46.388Z,73.77
2024-04-11T03:50:46.517Z,73.94
2024-04-11T03:51:46.388Z,74.02
2024-04-11T03:52:46.356Z,74.07
2024-04-11T03:53:46.341Z,74.09
2024-04-11T03:54:46.335Z,74.06
2024-04-11T03:55:47.959Z,73.90
2024-04-11T03:56:46.384Z,73.91
2024-04-11T03:57:46.286Z,73.99
2024-04-11T03:58:46.278Z,73.98
2024-04-11T03:59:46.351Z,73.98
2024-04-11T04:00:46.264Z,73.71
2024-04-11T04:01:47.746Z,73.62
2024-04-11T04:02:46.315Z,73.62
2024-04-11T04:03:46.334Z,73.68
2024-04-11T04:04:46.205Z,73.67
2024-04-11T04:05:46.247Z,73.66
2024-04-11T04:06:46.170Z,73.63
2024-04-11T04:07:46.176Z,73.55
2024-04-11T04:08:46.143Z,73.46
2024-04-11T04:09:46.117Z,73.26
2024-04-11T04:10:51.720Z,73.19
2024-04-11T04:11:46.118Z,72.96
2024-04-11T04:12:46.091Z,72.77
2024-04-11T04:13:46.066Z,72.66
2024-04-11T04:14:46.103Z,72.57
2024-04-11T04:15:46.060Z,72.46
2024-04-11T04:16:46.091Z,72.41
2024-04-11T04:17:46.028Z,72.44
2024-04-11T04:18:46.135Z,72.54
2024-04-11T04:19:46.019Z,72.52
2024-04-11T04:20:46.021Z,72.47
2024-04-11T04:21:45.981Z,72.41
2024-04-11T04:22:45.938Z,72.56
2024-04-11T04:23:45.966Z,72.64
2024-04-11T04:24:45.907Z,72.87
2024-04-11T04:25:45.969Z,73.11
2024-04-11T04:26:46.134Z,73.22
2024-04-11T04:27:45.886Z,73.14
2024-04-11T04:28:45.855Z,73.10
2024-04-11T04:29:45.950Z,73.13
2024-04-11T04:30:45.843Z,73.24
2024-04-11T04:31:45.817Z,73.30
2024-04-11T04:32:45.983Z,73.34
2024-04-11T04:33:45.915Z,73.43
2024-04-11T04:34:45.835Z,73.35
2024-04-11T04:35:45.841Z,73.14
2024-04-11T04:36:45.764Z,73.04
2024-04-11T04:37:45.733Z,73.01
2024-04-11T04:38:45.797Z,73.13
2024-04-11T04:39:45.746Z,73.13
2024-04-11T04:40:49.234Z,73.10
2024-04-11T04:41:46.273Z,73.07
2024-04-11T04:42:45.679Z,73.10
2024-04-11T04:43:46.210Z,73.18
2024-04-11T04:44:45.696Z,73.13
2024-04-11T04:45:45.646Z,73.14
2024-04-11T04:46:45.624Z,73.20
2024-04-11T04:47:45.747Z,73.34
2024-04-11T04:48:45.711Z,73.47
2024-04-11T04:49:45.597Z,73.49
2024-04-11T04:50:45.648Z,73.33
2024-04-11T04:51:45.583Z,73.23
2024-04-11T04:52:45.719Z,73.18
2024-04-11T04:53:46.603Z,73.11
2024-04-11T04:54:45.674Z,73.06
2024-04-11T04:55:45.764Z,73.14
2024-04-11T04:56:45.742Z,73.26
2024-04-11T04:57:45.744Z,73.30
2024-04-11T04:58:46.454Z,73.28
2024-04-11T04:59:45.613Z,73.32
2024-04-11T05:00:45.542Z,73.42
2024-04-11T05:01:45.450Z,73.42
2024-04-11T05:02:45.502Z,73.43
2024-04-11T05:03:45.544Z,73.43
2024-04-11T05:04:45.427Z,73.42
2024-04-11T05:05:45.457Z,73.52
2024-04-11T05:06:45.416Z,73.67
2024-04-11T05:07:45.954Z,73.72
2024-04-11T05:08:45.434Z,73.71
2024-04-11T05:09:45.337Z,73.69
2024-04-11T05:10:45.337Z,73.66
2024-04-11T05:11:45.802Z,73.74
2024-04-11T05:12:45.358Z,73.83
2024-04-11T05:13:48.069Z,73.86
2024-04-11T05:14:45.315Z,73.83
2024-04-11T05:15:46.001Z,73.79
2024-04-11T05:16:45.233Z,73.76
2024-04-11T05:17:45.416Z,73.81
2024-04-11T05:18:45.321Z,73.82
2024-04-11T05:19:45.261Z,73.88
2024-04-11T05:20:45.380Z,73.92
2024-04-11T05:21:45.225Z,73.97
2024-04-11T05:22:46.231Z,74.08
2024-04-11T05:23:45.342Z,74.18
2024-04-11T05:24:45.145Z,74.20
2024-04-11T05:25:45.137Z,74.28
2024-04-11T05:26:45.157Z,74.25
2024-04-11T05:27:45.127Z,74.20
2024-04-11T05:28:45.081Z,74.06
2024-04-11T05:29:45.167Z,73.94
2024-04-11T05:30:45.073Z,73.79
2024-04-11T05:31:45.101Z,73.66
2024-04-11T05:32:45.301Z,73.53
2024-04-11T05:33:45.168Z,73.48
2024-04-11T05:34:45.083Z,73.46
2024-04-11T05:35:45.179Z,73.30
2024-04-11T05:36:44.984Z,73.12
2024-04-11T05:37:45.015Z,73.05
2024-04-11T05:38:44.984Z,73.17
2024-04-11T05:39:44.961Z,73.28
2024-04-11T05:40:44.947Z,73.41
2024-04-11T05:41:44.969Z,73.38
2024-04-11T05:42:44.921Z,73.33
2024-04-11T05:43:45.015Z,73.49
2024-04-11T05:44:44.992Z,73.57
2024-04-11T05:45:44.906Z,73.62
2024-04-11T05:46:44.896Z,73.66
2024-04-11T05:47:45.069Z,73.74
2024-04-11T05:48:45.046Z,73.67
2024-04-11T05:49:44.813Z,73.66
2024-04-11T05:50:44.847Z,73.75
2024-04-11T05:51:44.798Z,73.78
2024-04-11T05:52:44.773Z,73.91
2024-04-11T05:53:44.852Z,74.05
2024-04-11T05:54:44.785Z,74.06
2024-04-11T05:55:44.745Z,74.11
2024-04-11T05:56:44.766Z,74.07
2024-04-11T05:57:44.716Z,74.06
2024-04-11T05:58:45.027Z,74.15
2024-04-11T05:59:44.813Z,74.14
2024-04-11T06:00:44.703Z,74.13
2024-04-11T06:01:44.826Z,74.13
2024-04-11T06:02:44.693Z,74.19
2024-04-11T06:03:44.670Z,74.23
2024-04-11T06:04:44.633Z,74.16
2024-04-11T06:05:44.689Z,74.04
2024-04-11T06:06:44.612Z,73.93
2024-04-11T06:07:44.586Z,73.88
2024-04-11T06:08:44.733Z,73.89
2024-04-11T06:09:44.559Z,73.83
2024-04-11T06:10:44.588Z,73.80
2024-04-11T06:11:44.607Z,73.83
2024-04-11T06:12:44.520Z,73.91
2024-04-11T06:13:44.518Z,74.09
2024-04-11T06:14:44.561Z,74.13
2024-04-11T06:15:44.516Z,74.11
2024-04-11T06:16:44.539Z,74.08
2024-04-11T06:17:45.546Z,74.07
2024-04-11T06:18:44.501Z,74.14
2024-04-11T06:19:44.443Z,74.23
2024-04-11T06:20:44.556Z,74.26
2024-04-11T06:21:44.419Z,74.39
2024-04-11T06:22:44.410Z,74.43
2024-04-11T06:23:44.439Z,74.35
2024-04-11T06:24:44.371Z,74.27
2024-04-11T06:25:44.395Z,74.19
2024-04-11T06:26:44.397Z,74.16
2024-04-11T06:27:44.328Z,74.16
2024-04-11T06:28:44.372Z,74.30
2024-04-11T06:29:44.449Z,74.41
2024-04-11T06:30:44.295Z,74.51
2024-04-11T06:31:44.268Z,74.61
2024-04-11T06:32:44.378Z,74.67
2024-04-11T06:33:44.740Z,74.68
2024-04-11T06:34:44.383Z,74.65
2024-04-11T06:35:44.227Z,74.59
2024-04-11T06:36:44.219Z,74.58
2024-04-11T06:37:44.219Z,74.62
2024-04-11T06:38:44.238Z,74.63
2024-04-11T06:39:44.168Z,74.70
2024-04-11T06:40:44.166Z,74.80
2024-04-11T06:41:44.252Z,74.81
2024-04-11T06:42:44.132Z,74.75
2024-04-11T06:43:44.133Z,74.69
2024-04-11T06:44:44.169Z,74.66
2024-04-11T06:45:44.131Z,74.57
2024-04-11T06:46:44.111Z,74.56
2024-04-11T06:47:50.220Z,74.53
2024-04-11T06:48:44.130Z,74.61
2024-04-11T06:49:44.058Z,74.68
2024-04-11T06:50:44.063Z,74.67
2024-04-11T06:51:44.092Z,74.64
2024-04-11T06:52:44.010Z,74.60
2024-04-11T06:53:44.013Z,74.56
2024-04-11T06:54:44.001Z,74.58
2024-04-11T06:55:43.962Z,74.60
2024-04-11T06:56:43.954Z,74.55
2024-04-11T06:57:43.933Z,74.50
2024-04-11T06:58:43.927Z,74.44
2024-04-11T06:59:43.944Z,74.32
2024-04-11T07:00:43.924Z,74.28
2024-04-11T07:01:44.454Z,74.29
2024-04-11T07:02:43.978Z,74.31
2024-04-11T07:03:43.883Z,74.31
2024-04-11T07:04:43.873Z,74.25
2024-04-11T07:05:43.874Z,74.00
2024-04-11T07:06:43.865Z,73.81
2024-04-11T07:07:43.807Z,73.84
2024-04-11T07:08:43.816Z,73.84
2024-04-11T07:09:43.781Z,73.76
2024-04-11T07:10:43.783Z,73.64
2024-04-11T07:11:43.792Z,73.62
2024-04-11T07:12:43.771Z,73.62
2024-04-11T07:13:43.752Z,73.57
2024-04-11T07:14:43.753Z,73.43
2024-04-11T07:15:43.693Z,73.33
2024-04-11T07:16:43.715Z,73.33
2024-04-11T07:17:43.740Z,73.47
2024-04-11T07:18:43.653Z,73.65
2024-04-11T07:19:43.649Z,73.72
2024-04-11T07:20:43.727Z,73.71
2024-04-11T07:21:43.614Z,73.65
2024-04-11T07:22:43.591Z,73.30
2024-04-11T07:23:43.659Z,73.14
2024-04-11T07:24:43.611Z,73.11
2024-04-11T07:25:43.569Z,73.16
2024-04-11T07:26:43.577Z,73.05
2024-04-11T07:27:43.597Z,72.88
2024-04-11T07:28:43.528Z,72.84
2024-04-11T07:29:43.514Z,72.89
2024-04-11T07:30:43.504Z,72.58
2024-04-11T07:31:43.477Z,72.06
2024-04-11T07:32:43.549Z,71.98
2024-04-11T07:33:43.569Z,72.16
2024-04-11T07:34:43.437Z,72.29
2024-04-11T07:35:43.431Z,72.42
2024-04-11T07:36:43.440Z,72.57
2024-04-11T07:37:47.695Z,72.71
2024-04-11T07:38:43.541Z,72.44
2024-04-11T07:39:43.432Z,71.81
2024-04-11T07:40:43.374Z,71.53
2024-04-11T07:41:43.417Z,71.46
2024-04-11T07:42:43.348Z,71.35
2024-04-11T07:43:43.331Z,70.84
2024-04-11T07:44:43.397Z,70.34
2024-04-11T07:45:43.330Z,70.04
2024-04-11T07:46:51.118Z,70.12
2024-04-11T07:47:50.579Z,69.86
2024-04-11T07:48:43.381Z,69.33
2024-04-11T07:49:43.811Z,68.80
2024-04-11T07:50:43.279Z,68.40
2024-04-11T07:51:43.432Z,68.39
2024-04-11T07:52:43.220Z,68.33
2024-04-11T07:53:43.215Z,68.27
2024-04-11T07:54:47.269Z,68.31
2024-04-11T07:55:43.193Z,68.14
2024-04-11T07:56:43.227Z,68.00
2024-04-11T07:57:43.152Z,68.10
2024-04-11T07:58:43.143Z,67.94
2024-04-11T07:59:43.363Z,67.46
2024-04-11T08:00:43.185Z,67.57
2024-04-11T08:01:43.154Z,67.62
2024-04-11T08:02:43.123Z,67.56
2024-04-11T08:03:43.080Z,67.72
2024-04-11T08:04:43.073Z,68.00
2024-04-11T08:05:43.089Z,68.05
2024-04-11T08:06:43.622Z,67.86
2024-04-11T08:07:43.122Z,67.89
2024-04-11T08:08:43.071Z,67.98
2024-04-11T08:09:43.034Z,67.88
2024-04-11T08:10:43.026Z,67.91
2024-04-11T08:11:43.031Z,67.68
2024-04-11T08:12:42.979Z,67.56
2024-04-11T08:13:45.053Z,67.05
2024-04-11T08:14:43.003Z,66.85
2024-04-11T08:15:42.925Z,66.57
2024-04-11T08:16:43.045Z,66.61
2024-04-11T08:17:42.957Z,66.49
2024-04-11T08:18:42.906Z,66.15
2024-04-11T08:20:42.900Z,66.51
2024-04-11T08:21:42.833Z,66.62
2024-04-11T08:22:42.847Z,66.44
2024-04-11T08:23:42.833Z,66.22
2024-04-11T08:24:42.809Z,66.09
2024-04-11T08:25:42.795Z,66.06
2024-04-11T08:26:42.801Z,66.07
2024-04-11T08:27:42.785Z,66.09
2024-04-11T08:28:42.768Z,66.18
2024-04-11T08:29:42.771Z,66.51
2024-04-11T08:30:42.765Z,66.56
2024-04-11T08:31:42.719Z,66.52
2024-04-11T08:32:42.774Z,66.63
2024-04-11T08:33:42.766Z,66.92
2024-04-11T08:34:42.688Z,67.06
2024-04-11T08:35:42.680Z,67.07
2024-04-11T08:36:42.690Z,66.90
2024-04-11T08:37:42.634Z,66.50
2024-04-11T08:38:42.952Z,66.36
2024-04-11T08:39:42.679Z,66.39
2024-04-11T08:40:42.604Z,66.03
2024-04-11T08:41:42.642Z,65.74
2024-04-11T08:42:50.523Z,65.63
2024-04-11T08:43:42.648Z,65.73
2024-04-11T08:44:42.745Z,65.78
2024-04-11T08:45:42.541Z,65.81
2024-04-11T08:46:42.545Z,65.93
2024-04-11T08:47:42.598Z,66.12
2024-04-11T08:48:42.714Z,66.41
2024-04-11T08:49:42.601Z,66.45
2024-04-11T08:50:42.661Z,66.73
2024-04-11T08:51:42.525Z,66.71
2024-04-11T08:52:42.450Z,66.69
2024-04-11T08:53:51.848Z,66.89
2024-04-11T08:54:42.432Z,67.19
2024-04-11T08:55:42.417Z,66.74
2024-04-11T08:56:42.446Z,66.48
2024-04-11T08:57:42.412Z,66.56
2024-04-11T08:58:42.384Z,66.48
2024-04-11T08:59:45.217Z,66.44
2024-04-11T09:00:42.377Z,66.51
2024-04-11T09:01:42.341Z,66.61
2024-04-11T09:02:42.368Z,66.68
2024-04-11T09:03:42.528Z,66.77
2024-04-11T09:04:42.341Z,66.66
2024-04-11T09:05:42.317Z,66.41
2024-04-11T09:06:42.283Z,66.30
2024-04-11T09:07:42.326Z,66.25
2024-04-11T09:08:42.294Z,66.10
2024-04-11T09:09:42.285Z,65.94
2024-04-11T09:10:42.226Z,65.68
2024-04-11T09:11:42.236Z,65.35
2024-04-11T09:12:42.202Z,64.91
2024-04-11T09:13:42.193Z,65.03
2024-04-11T09:14:42.198Z,65.58
2024-04-11T09:15:42.195Z,65.24
2024-04-11T09:16:42.146Z,64.97
2024-04-11T09:17:42.325Z,64.95
2024-04-11T09:18:42.136Z,65.36
2024-04-11T09:19:42.111Z,65.75
2024-04-11T09:20:42.131Z,66.01
2024-04-11T09:21:42.122Z,66.29
2024-04-11T09:22:42.068Z,66.81
2024-04-11T09:23:42.083Z,67.25
2024-04-11T09:24:42.062Z,67.37
2024-04-11T09:25:42.034Z,66.23
2024-04-11T09:26:42.018Z,65.80
2024-04-11T09:27:42.046Z,65.61
2024-04-11T09:28:41.993Z,66.20
2024-04-11T09:29:42.098Z,66.49
2024-04-11T09:30:41.965Z,66.32
2024-04-11T09:31:41.957Z,65.96
2024-04-11T09:32:42.088Z,65.63
2024-04-11T09:33:42.039Z,65.61
2024-04-11T09:34:44.778Z,65.91
2024-04-11T09:35:41.982Z,66.26
2024-04-11T09:36:41.907Z,66.67
2024-04-11T09:37:41.886Z,66.25
2024-04-11T09:38:42.965Z,65.68
2024-04-11T09:39:41.916Z,64.81
2024-04-11T09:40:41.838Z,65.06
2024-04-11T09:41:41.920Z,66.05
2024-04-11T09:42:41.820Z,67.31
2024-04-11T09:43:41.808Z,67.96
2024-04-11T09:44:41.850Z,66.97
2024-04-11T09:45:41.788Z,66.88
2024-04-11T09:46:43.516Z,67.67
2024-04-11T09:47:41.825Z,68.33
2024-04-11T09:48:41.797Z,67.67
2024-04-11T09:49:41.728Z,67.24
2024-04-11T09:50:41.751Z,66.86
2024-04-11T09:51:41.744Z,67.30
2024-04-11T09:52:41.699Z,66.88
2024-04-11T09:53:41.753Z,66.35
2024-04-11T09:54:41.666Z,65.89
2024-04-11T09:55:41.666Z,66.12
2024-04-11T09:56:41.673Z,66.50
2024-04-11T09:57:41.722Z,67.19
2024-04-11T09:58:41.610Z,67.80
2024-04-11T09:59:41.665Z,67.94
2024-04-11T10:00:41.639Z,67.96
2024-04-11T10:01:42.371Z,67.46
2024-04-11T10:02:41.750Z,66.45
2024-04-11T10:03:41.977Z,66.06
2024-04-11T10:04:41.563Z,66.28
2024-04-11T10:05:41.698Z,66.83
2024-04-11T10:06:41.598Z,66.69
2024-04-11T10:07:41.522Z,66.70
2024-04-11T10:08:41.602Z,67.24
2024-04-11T10:09:41.474Z,67.62
2024-04-11T10:10:41.501Z,67.97
2024-04-11T10:11:41.567Z,68.54
2024-04-11T10:12:41.510Z,68.54
2024-04-11T10:13:41.507Z,68.10
2024-04-11T10:14:41.460Z,67.90
2024-04-11T10:15:41.422Z,67.59
2024-04-11T10:16:41.385Z,67.29
2024-04-11T10:17:41.526Z,67.25
2024-04-11T10:18:41.795Z,67.43
2024-04-11T10:19:41.417Z,67.05
2024-04-11T10:20:41.419Z,66.93
2024-04-11T10:21:48.392Z,67.38
2024-04-11T10:22:41.310Z,68.01
2024-04-11T10:23:41.343Z,68.46
2024-04-11T10:24:41.326Z,68.83
2024-04-11T10:25:41.268Z,69.17
2024-04-11T10:26:41.332Z,68.99
2024-04-11T10:27:41.282Z,68.87
2024-04-11T10:28:41.244Z,69.21
2024-04-11T10:29:41.448Z,69.76
2024-04-11T10:30:41.898Z,69.68
2024-04-11T10:31:41.491Z,69.08
2024-04-11T10:32:41.314Z,68.26
2024-04-11T10:33:41.284Z,67.11
2024-04-11T10:34:41.228Z,66.04
2024-04-11T10:35:41.426Z,65.62
2024-04-11T10:36:41.149Z,66.13
2024-04-11T10:37:41.276Z,66.21
2024-04-11T10:38:41.399Z,66.26
2024-04-11T10:39:41.147Z,66.04
2024-04-11T10:40:41.137Z,65.95
2024-04-11T10:41:41.136Z,66.10
2024-04-11T10:42:45.407Z,66.32
2024-04-11T10:43:41.118Z,67.16
2024-04-11T10:44:41.275Z,67.50
2024-04-11T10:45:41.092Z,67.21
2024-04-11T10:46:41.153Z,66.67
2024-04-11T10:47:41.171Z,66.71
2024-04-11T10:48:41.067Z,66.65
2024-04-11T10:49:41.014Z,66.51
2024-04-11T10:50:41.014Z,66.03
2024-04-11T10:51:41.596Z,65.27
2024-04-11T10:52:40.964Z,64.61
2024-04-11T10:53:41.215Z,64.35
2024-04-11T10:54:41.166Z,64.36
2024-04-11T10:55:40.983Z,64.93
2024-04-11T10:56:40.955Z,65.94
2024-04-11T10:57:40.931Z,65.13
2024-04-11T10:58:40.919Z,64.66
2024-04-11T10:59:40.968Z,65.08
2024-04-11T11:00:40.893Z,65.48
2024-04-11T11:01:44.885Z,65.44
2024-04-11T11:02:40.994Z,65.05
2024-04-11T11:03:41.033Z,65.69
2024-04-11T11:04:40.949Z,65.95
2024-04-11T11:05:41.086Z,66.14
2024-04-11T11:06:40.806Z,65.66
2024-04-11T11:07:40.774Z,65.50
2024-04-11T11:08:40.841Z,65.50
2024-04-11T11:09:40.773Z,65.60
2024-04-11T11:10:40.744Z,65.81
2024-04-11T11:11:40.803Z,65.91
2024-04-11T11:12:40.748Z,65.37
2024-04-11T11:13:40.720Z,65.22
2024-04-11T11:14:40.688Z,65.68
2024-04-11T11:15:40.725Z,66.28
2024-04-11T11:16:40.860Z,66.62
2024-04-11T11:17:41.105Z,65.93
2024-04-11T11:18:40.838Z,65.53
2024-04-11T11:19:40.653Z,65.32
2024-04-11T11:20:40.641Z,65.29
2024-04-11T11:21:40.624Z,65.16
2024-04-11T11:22:40.584Z,64.54
2024-04-11T11:23:40.601Z,64.21
2024-04-11T11:24:41.708Z,64.85
2024-04-11T11:25:40.754Z,65.17
2024-04-11T11:26:40.855Z,64.94
2024-04-11T11:27:42.335Z,64.01
2024-04-11T11:28:40.731Z,63.92
2024-04-11T11:29:40.791Z,63.34
2024-04-11T11:30:41.763Z,62.91
2024-04-11T11:31:41.347Z,62.53
2024-04-11T11:32:40.838Z,62.46
2024-04-11T11:33:42.085Z,62.73
2024-04-11T11:34:40.579Z,63.31
2024-04-11T11:35:40.897Z,63.84
2024-04-11T11:36:41.303Z,64.43
2024-04-11T11:37:40.845Z,64.92
2024-04-11T11:38:40.513Z,65.46
2024-04-11T11:39:41.399Z,64.55
2024-04-11T11:40:40.612Z,64.45
2024-04-11T11:41:41.612Z,64.44
2024-04-11T11:42:40.583Z,64.28
2024-04-11T11:43:40.459Z,64.05
2024-04-11T11:44:40.586Z,63.72
2024-04-11T11:45:40.303Z,62.89
2024-04-11T11:46:40.661Z,63.28
2024-04-11T11:47:41.236Z,63.64
2024-04-11T11:48:41.385Z,63.89
2024-04-11T11:49:40.590Z,63.60
2024-04-11T11:50:40.359Z,63.75
2024-04-11T11:51:41.931Z,63.68
2024-04-11T11:52:44.332Z,63.57
2024-04-11T11:53:40.561Z,63.28
2024-04-11T11:54:40.713Z,63.00
2024-04-11T11:55:42.117Z,63.49
2024-04-11T11:56:40.281Z,63.34
2024-04-11T11:57:40.149Z,63.37
2024-04-11T11:58:40.112Z,64.12
2024-04-11T11:59:40.242Z,64.45
2024-04-11T12:00:40.118Z,64.92
2024-04-11T12:01:40.071Z,64.30
2024-04-11T12:02:40.123Z,62.46
2024-04-11T12:03:41.318Z,62.23
2024-04-11T12:04:40.283Z,63.01
2024-04-11T12:05:40.869Z,63.31
2024-04-11T12:06:40.053Z,63.81
2024-04-11T12:07:40.103Z,64.54
2024-04-11T12:08:40.367Z,65.26
2024-04-11T12:09:40.020Z,66.07
2024-04-11T12:10:40.068Z,66.49
2024-04-11T12:11:40.184Z,66.47
2024-04-11T12:12:47.668Z,66.80
2024-04-11T12:13:40.007Z,67.48
2024-04-11T12:14:39.957Z,66.45
2024-04-11T12:15:40.324Z,64.83
2024-04-11T12:16:40.333Z,63.72
2024-04-11T12:17:40.094Z,63.12
2024-04-11T12:18:40.011Z,61.81
2024-04-11T12:19:39.955Z,62.18
2024-04-11T12:20:40.103Z,62.78
2024-04-11T12:21:39.863Z,63.91
2024-04-11T12:22:39.962Z,64.11
2024-04-11T12:23:39.938Z,64.28
2024-04-11T12:24:39.872Z,64.99
2024-04-11T12:25:40.200Z,65.56
2024-04-11T12:26:39.990Z,65.48
2024-04-11T12:27:39.794Z,64.56
2024-04-11T12:28:39.875Z,62.95
2024-04-11T12:29:42.867Z,62.41
2024-04-11T12:30:39.818Z,62.00
2024-04-11T12:31:39.829Z,62.82
2024-04-11T12:32:40.183Z,63.66
2024-04-11T12:33:39.894Z,64.53
2024-04-11T12:34:39.931Z,63.85
2024-04-11T12:35:39.795Z,64.20
2024-04-11T12:36:39.679Z,61.71
2024-04-11T12:37:39.651Z,60.81
2024-04-11T12:38:39.773Z,61.33
2024-04-11T12:39:39.714Z,61.59
2024-04-11T12:40:39.623Z,62.42
2024-04-11T12:41:39.626Z,63.14
2024-04-11T12:42:39.683Z,62.76
2024-04-11T12:43:39.640Z,62.51
2024-04-11T12:44:39.580Z,61.95
2024-04-11T12:45:39.598Z,62.45
2024-04-11T12:46:39.576Z,62.63
2024-04-11T12:47:39.897Z,63.41
2024-04-11T12:48:40.348Z,64.18
2024-04-11T12:49:39.699Z,63.52
2024-04-11T12:50:39.542Z,63.85
2024-04-11T12:51:39.570Z,65.02
2024-04-11T12:52:39.511Z,65.96
2024-04-11T12:53:40.175Z,63.98